createdAt,value
2022-12-24T00:00:41.269Z,997.50
2022-12-24T00:01:40.613Z,997.49
2022-12-24T00:02:40.695Z,997.44
2022-12-24T00:03:40.671Z,997.50
2022-12-24T00:04:40.593Z,997.47
2022-12-24T00:05:40.560Z,997.49
2022-12-24T00:06:40.554Z,997.55
2022-12-24T00:07:40.543Z,997.55
2022-12-24T00:08:40.529Z,997.57
2022-12-24T00:09:40.520Z,997.59
2022-12-24T00:10:40.513Z,997.65
2022-12-24T00:11:40.500Z,997.57
2022-12-24T00:12:40.491Z,997.58
2022-12-24T00:13:40.482Z,997.61
2022-12-24T00:14:40.472Z,997.63
2022-12-24T00:15:40.465Z,997.70
2022-12-24T00:16:40.503Z,997.63
2022-12-24T00:17:40.442Z,997.67
2022-12-24T00:18:45.922Z,997.64
2022-12-24T00:19:40.423Z,997.67
2022-12-24T00:20:40.408Z,997.73
2022-12-24T00:21:40.401Z,997.81
2022-12-24T00:22:40.386Z,997.85
2022-12-24T00:23:40.379Z,997.84
2022-12-24T00:24:40.369Z,997.92
2022-12-24T00:25:40.349Z,997.88
2022-12-24T00:26:40.371Z,997.93
2022-12-24T00:27:40.335Z,997.96
2022-12-24T00:28:40.362Z,997.93
2022-12-24T00:29:40.325Z,997.96
2022-12-24T00:30:40.308Z,997.98
2022-12-24T00:31:40.300Z,998.06
2022-12-24T00:32:40.304Z,998.04
2022-12-24T00:33:40.281Z,998.08
2022-12-24T00:34:40.264Z,998.17
2022-12-24T00:35:40.264Z,998.15
2022-12-24T00:36:40.246Z,998.20
2022-12-24T00:37:40.231Z,998.22
2022-12-24T00:38:40.247Z,998.22
2022-12-24T00:39:40.219Z,998.21
2022-12-24T00:40:40.204Z,998.26
2022-12-24T00:41:40.195Z,998.24
2022-12-24T00:42:40.191Z,998.29
2022-12-24T00:43:40.180Z,998.28
2022-12-24T00:44:40.179Z,998.26
2022-12-24T00:45:40.165Z,998.29
2022-12-24T00:46:40.222Z,998.32
2022-12-24T00:47:40.152Z,998.24
2022-12-24T00:48:40.126Z,998.30
2022-12-24T00:49:40.117Z,998.26
2022-12-24T00:50:40.143Z,998.27
2022-12-24T00:51:40.154Z,998.26
2022-12-24T00:52:40.089Z,998.24
2022-12-24T00:53:40.081Z,998.28
2022-12-24T00:54:40.070Z,998.28
2022-12-24T00:55:40.065Z,998.29
2022-12-24T00:56:40.046Z,998.35
2022-12-24T00:57:40.031Z,998.36
2022-12-24T00:58:40.038Z,998.42
2022-12-24T00:59:40.023Z,998.40
2022-12-24T01:00:40.005Z,998.38
2022-12-24T01:01:40.058Z,998.41
2022-12-24T01:02:40.203Z,998.42
2022-12-24T01:03:40.047Z,998.43
2022-12-24T01:04:39.971Z,998.45
2022-12-24T01:05:39.963Z,998.50
2022-12-24T01:06:39.949Z,998.50
2022-12-24T01:07:39.937Z,998.46
2022-12-24T01:08:39.933Z,998.57
2022-12-24T01:09:39.918Z,998.50
2022-12-24T01:10:39.910Z,998.52
2022-12-24T01:11:39.902Z,998.53
2022-12-24T01:12:39.896Z,998.53
2022-12-24T01:13:39.894Z,998.50
2022-12-24T01:14:39.879Z,998.50
2022-12-24T01:15:39.879Z,998.55
2022-12-24T01:16:39.873Z,998.57
2022-12-24T01:17:39.844Z,998.59
2022-12-24T01:18:39.823Z,998.58
2022-12-24T01:19:39.827Z,998.59
2022-12-24T01:20:39.814Z,998.64
2022-12-24T01:21:39.816Z,998.69
2022-12-24T01:22:39.794Z,998.68
2022-12-24T01:23:39.789Z,998.69
2022-12-24T01:24:39.776Z,998.70
2022-12-24T01:25:39.759Z,998.72
2022-12-24T01:26:39.751Z,998.76
2022-12-24T01:27:39.745Z,998.76
2022-12-24T01:28:39.735Z,998.75
2022-12-24T01:29:39.729Z,998.83
2022-12-24T01:30:39.702Z,998.84
2022-12-24T01:31:39.798Z,998.88
2022-12-24T01:32:39.697Z,998.90
2022-12-24T01:33:39.682Z,998.92
2022-12-24T01:34:39.680Z,998.93
2022-12-24T01:35:39.666Z,998.88
2022-12-24T01:36:39.653Z,998.89
2022-12-24T01:37:39.643Z,998.90
2022-12-24T01:38:39.632Z,998.89
2022-12-24T01:39:39.620Z,998.92
2022-12-24T01:40:39.610Z,998.98
2022-12-24T01:41:39.601Z,998.97
2022-12-24T01:42:39.595Z,998.98
2022-12-24T01:43:39.581Z,998.97
2022-12-24T01:44:39.569Z,999.02
2022-12-24T01:45:39.560Z,999.00
2022-12-24T01:46:39.728Z,998.98
2022-12-24T01:47:39.541Z,998.99
2022-12-24T01:48:39.543Z,998.98
2022-12-24T01:49:39.557Z,999.01
2022-12-24T01:50:39.512Z,998.98
2022-12-24T01:51:39.503Z,999.01
2022-12-24T01:52:39.496Z,999.07
2022-12-24T01:53:39.487Z,999.12
2022-12-24T01:54:39.483Z,999.19
2022-12-24T01:55:39.467Z,999.20
2022-12-24T01:56:39.459Z,999.21
2022-12-24T01:57:39.450Z,999.23
2022-12-24T01:58:39.430Z,999.27
2022-12-24T01:59:39.429Z,999.25
2022-12-24T02:00:39.414Z,999.26
2022-12-24T02:01:39.507Z,999.27
2022-12-24T02:02:39.479Z,999.25
2022-12-24T02:03:39.441Z,999.29
2022-12-24T02:04:39.372Z,999.30
2022-12-24T02:05:39.368Z,999.32
2022-12-24T02:06:39.360Z,999.29
2022-12-24T02:07:39.347Z,999.33
2022-12-24T02:08:39.369Z,999.31
2022-12-24T02:09:39.322Z,999.41
2022-12-24T02:10:39.312Z,999.42
2022-12-24T02:11:39.302Z,999.42
2022-12-24T02:12:39.299Z,999.38
2022-12-24T02:13:39.298Z,999.38
2022-12-24T02:14:39.276Z,999.40
2022-12-24T02:15:39.315Z,999.43
2022-12-24T02:16:39.330Z,999.45
2022-12-24T02:17:39.261Z,999.50
2022-12-24T02:18:39.236Z,999.50
2022-12-24T02:19:39.228Z,999.57
2022-12-24T02:20:39.217Z,999.52
2022-12-24T02:21:39.209Z,999.51
2022-12-24T02:22:39.193Z,999.52
2022-12-24T02:23:39.186Z,999.51
2022-12-24T02:24:39.182Z,999.51
2022-12-24T02:25:39.163Z,999.53
2022-12-24T02:26:39.155Z,999.49
2022-12-24T02:27:39.150Z,999.47
2022-12-24T02:28:39.138Z,999.50
2022-12-24T02:29:39.125Z,999.53
2022-12-24T02:30:39.113Z,999.50
2022-12-24T02:31:39.185Z,999.55
2022-12-24T02:32:39.099Z,999.54
2022-12-24T02:33:39.084Z,999.52
2022-12-24T02:34:39.089Z,999.59
2022-12-24T02:35:39.068Z,999.61
2022-12-24T02:36:39.061Z,999.64
2022-12-24T02:37:39.043Z,999.62
2022-12-24T02:38:39.048Z,999.59
2022-12-24T02:39:39.032Z,999.58
2022-12-24T02:40:39.014Z,999.60
2022-12-24T02:41:39.000Z,999.52
2022-12-24T02:42:38.996Z,999.48
2022-12-24T02:43:39.011Z,999.54
2022-12-24T02:44:38.969Z,999.46
2022-12-24T02:45:38.965Z,999.42
2022-12-24T02:46:38.988Z,999.46
2022-12-24T02:47:38.945Z,999.46
2022-12-24T02:48:38.933Z,999.51
2022-12-24T02:49:38.921Z,999.52
2022-12-24T02:50:38.917Z,999.61
2022-12-24T02:51:38.903Z,999.65
2022-12-24T02:52:38.904Z,999.64
2022-12-24T02:53:38.899Z,999.69
2022-12-24T02:54:38.871Z,999.75
2022-12-24T02:55:38.863Z,999.70
2022-12-24T02:56:38.860Z,999.76
2022-12-24T02:57:38.864Z,999.79
2022-12-24T02:58:38.834Z,999.72
2022-12-24T02:59:38.824Z,999.76
2022-12-24T03:00:38.866Z,999.79
2022-12-24T03:01:39.126Z,999.79
2022-12-24T03:02:38.885Z,999.82
2022-12-24T03:03:38.796Z,999.83
2022-12-24T03:04:38.779Z,999.91
2022-12-24T03:05:38.782Z,999.90
2022-12-24T03:06:38.794Z,999.89
2022-12-24T03:07:39.705Z,999.96
2022-12-24T03:08:38.730Z,1000.01
2022-12-24T03:09:38.753Z,1000.05
2022-12-24T03:10:38.719Z,1000.00
2022-12-24T03:11:38.713Z,1000.06
2022-12-24T03:12:38.711Z,1000.03
2022-12-24T03:13:38.683Z,1000.04
2022-12-24T03:14:38.683Z,1000.11
2022-12-24T03:15:38.664Z,1000.08
2022-12-24T03:16:38.717Z,1000.09
2022-12-24T03:17:38.659Z,1000.10
2022-12-24T03:18:38.637Z,1000.11
2022-12-24T03:19:38.623Z,1000.16
2022-12-24T03:20:38.622Z,1000.12
2022-12-24T03:21:38.605Z,1000.14
2022-12-24T03:22:38.590Z,1000.14
2022-12-24T03:23:38.580Z,1000.14
2022-12-24T03:24:38.591Z,1000.07
2022-12-24T03:25:38.572Z,1000.10
2022-12-24T03:26:38.546Z,1000.14
2022-12-24T03:27:38.537Z,1000.14
2022-12-24T03:28:38.534Z,1000.11
2022-12-24T03:29:38.520Z,1000.16
2022-12-24T03:30:38.507Z,1000.12
2022-12-24T03:31:38.627Z,1000.08
2022-12-24T03:32:38.487Z,1000.11
2022-12-24T03:33:38.475Z,1000.17
2022-12-24T03:34:38.469Z,1000.14
2022-12-24T03:35:38.471Z,1000.19
2022-12-24T03:36:38.448Z,1000.17
2022-12-24T03:37:38.449Z,1000.17
2022-12-24T03:38:39.216Z,1000.22
2022-12-24T03:39:38.415Z,1000.25
2022-12-24T03:40:38.406Z,1000.22
2022-12-24T03:41:38.408Z,1000.26
2022-12-24T03:42:38.385Z,1000.24
2022-12-24T03:43:39.224Z,1000.25
2022-12-24T03:44:38.370Z,1000.27
2022-12-24T03:45:38.371Z,1000.29
2022-12-24T03:46:38.347Z,1000.30
2022-12-24T03:47:38.336Z,1000.29
2022-12-24T03:48:38.328Z,1000.29
2022-12-24T03:49:38.322Z,1000.27
2022-12-24T03:50:38.311Z,1000.27
2022-12-24T03:51:38.303Z,1000.24
2022-12-24T03:52:38.284Z,1000.23
2022-12-24T03:53:38.282Z,1000.25
2022-12-24T03:54:38.271Z,1000.24
2022-12-24T03:55:38.258Z,1000.22
2022-12-24T03:56:38.250Z,1000.25
2022-12-24T03:57:38.239Z,1000.29
2022-12-24T03:58:38.228Z,1000.32
2022-12-24T03:59:38.217Z,1000.38
2022-12-24T04:00:38.244Z,1000.39
2022-12-24T04:01:38.326Z,1000.40
2022-12-24T04:02:38.327Z,1000.34
2022-12-24T04:03:38.182Z,1000.36
2022-12-24T04:04:38.165Z,1000.39
2022-12-24T04:05:38.161Z,1000.37
2022-12-24T04:06:38.154Z,1000.36
2022-12-24T04:07:38.137Z,1000.36
2022-12-24T04:08:38.131Z,1000.36
2022-12-24T04:09:38.119Z,1000.38
2022-12-24T04:10:38.117Z,1000.34
2022-12-24T04:11:38.115Z,1000.37
2022-12-24T04:12:38.078Z,1000.37
2022-12-24T04:13:38.103Z,1000.36
2022-12-24T04:14:38.069Z,1000.35
2022-12-24T04:15:38.057Z,1000.35
2022-12-24T04:16:38.102Z,1000.34
2022-12-24T04:17:38.046Z,1000.38
2022-12-24T04:18:38.035Z,1000.40
2022-12-24T04:19:38.019Z,1000.35
2022-12-24T04:20:38.010Z,1000.40
2022-12-24T04:21:38.000Z,1000.40
2022-12-24T04:22:37.998Z,1000.42
2022-12-24T04:23:37.985Z,1000.40
2022-12-24T04:24:37.971Z,1000.37
2022-12-24T04:25:37.960Z,1000.39
2022-12-24T04:26:37.957Z,1000.44
2022-12-24T04:27:37.939Z,1000.44
2022-12-24T04:28:37.935Z,1000.50
2022-12-24T04:29:37.921Z,1000.49
2022-12-24T04:30:37.913Z,1000.51
2022-12-24T04:31:37.945Z,1000.55
2022-12-24T04:32:37.900Z,1000.48
2022-12-24T04:33:37.884Z,1000.45
2022-12-24T04:34:37.877Z,1000.40
2022-12-24T04:35:37.868Z,1000.46
2022-12-24T04:36:37.846Z,1000.39
2022-12-24T04:37:37.840Z,1000.36
2022-12-24T04:38:37.828Z,1000.39
2022-12-24T04:39:37.827Z,1000.34
2022-12-24T04:40:37.809Z,1000.33
2022-12-24T04:41:37.809Z,1000.39
2022-12-24T04:42:37.785Z,1000.37
2022-12-24T04:43:37.793Z,1000.40
2022-12-24T04:44:37.776Z,1000.38
2022-12-24T04:45:37.808Z,1000.41
2022-12-24T04:46:37.753Z,1000.44
2022-12-24T04:47:37.744Z,1000.44
2022-12-24T04:48:37.734Z,1000.46
2022-12-24T04:49:37.736Z,1000.45
2022-12-24T04:50:37.718Z,1000.45
2022-12-24T04:51:37.703Z,1000.45
2022-12-24T04:52:37.692Z,1000.41
2022-12-24T04:53:37.679Z,1000.43
2022-12-24T04:54:37.712Z,1000.43
2022-12-24T04:55:37.658Z,1000.36
2022-12-24T04:56:37.653Z,1000.37
2022-12-24T04:57:37.650Z,1000.37
2022-12-24T04:58:37.636Z,1000.35
2022-12-24T04:59:37.620Z,1000.33
2022-12-24T05:00:37.610Z,1000.31
2022-12-24T05:01:37.704Z,1000.28
2022-12-24T05:02:37.790Z,1000.27
2022-12-24T05:03:37.629Z,1000.29
2022-12-24T05:04:37.571Z,1000.29
2022-12-24T05:05:37.561Z,1000.31
2022-12-24T05:06:37.573Z,1000.25
2022-12-24T05:07:37.545Z,1000.24
2022-12-24T05:08:37.529Z,1000.28
2022-12-24T05:09:37.530Z,1000.28
2022-12-24T05:10:37.509Z,1000.25
2022-12-24T05:11:37.503Z,1000.27
2022-12-24T05:12:37.486Z,1000.24
2022-12-24T05:13:44.333Z,1000.22
2022-12-24T05:14:37.468Z,1000.28
2022-12-24T05:15:37.458Z,1000.26
2022-12-24T05:16:37.502Z,1000.25
2022-12-24T05:17:37.434Z,1000.24
2022-12-24T05:18:37.431Z,1000.23
2022-12-24T05:19:37.419Z,1000.24
2022-12-24T05:20:37.407Z,1000.21
2022-12-24T05:21:37.399Z,1000.23
2022-12-24T05:22:37.390Z,1000.22
2022-12-24T05:23:37.373Z,1000.27
2022-12-24T05:24:37.389Z,1000.34
2022-12-24T05:25:37.355Z,1000.31
2022-12-24T05:26:37.356Z,1000.32
2022-12-24T05:27:37.332Z,1000.34
2022-12-24T05:28:37.338Z,1000.36
2022-12-24T05:29:37.318Z,1000.36
2022-12-24T05:30:37.347Z,1000.35
2022-12-24T05:31:37.304Z,1000.37
2022-12-24T05:32:37.285Z,1000.34
2022-12-24T05:33:37.286Z,1000.41
2022-12-24T05:34:37.260Z,1000.39
2022-12-24T05:35:37.255Z,1000.37
2022-12-24T05:36:37.259Z,1000.34
2022-12-24T05:37:37.238Z,1000.32
2022-12-24T05:38:37.224Z,1000.36
2022-12-24T05:39:37.213Z,1000.42
2022-12-24T05:40:37.199Z,1000.40
2022-12-24T05:41:37.192Z,1000.42
2022-12-24T05:42:37.184Z,1000.39
2022-12-24T05:43:37.188Z,1000.41
2022-12-24T05:44:37.164Z,1000.39
2022-12-24T05:45:37.157Z,1000.46
2022-12-24T05:46:37.219Z,1000.41
2022-12-24T05:47:43.001Z,1000.44
2022-12-24T05:48:37.122Z,1000.44
2022-12-24T05:49:37.116Z,1000.42
2022-12-24T05:50:37.105Z,1000.35
2022-12-24T05:51:37.102Z,1000.36
2022-12-24T05:52:37.099Z,1000.38
2022-12-24T05:53:37.076Z,1000.38
2022-12-24T05:54:37.062Z,1000.40
2022-12-24T05:55:37.060Z,1000.39
2022-12-24T05:56:37.073Z,1000.38
2022-12-24T05:57:37.038Z,1000.42
2022-12-24T05:58:37.025Z,1000.41
2022-12-24T05:59:37.011Z,1000.44
2022-12-24T06:00:37.010Z,1000.42
2022-12-24T06:01:37.061Z,1000.46
2022-12-24T06:02:37.067Z,1000.48
2022-12-24T06:03:36.995Z,1000.46
2022-12-24T06:04:36.985Z,1000.41
2022-12-24T06:05:36.966Z,1000.36
2022-12-24T06:06:36.944Z,1000.41
2022-12-24T06:07:36.932Z,1000.30
2022-12-24T06:08:36.954Z,1000.31
2022-12-24T06:09:36.915Z,1000.31
2022-12-24T06:10:36.908Z,1000.36
2022-12-24T06:11:44.063Z,1000.41
2022-12-24T06:13:40.844Z,1000.45
2022-12-24T06:14:40.813Z,1000.49
2022-12-24T06:16:44.758Z,1000.54
2022-12-24T06:17:44.738Z,1000.53
2022-12-24T06:19:48.674Z,1000.63
2022-12-24T06:20:48.663Z,1000.60
2022-12-24T06:22:41.551Z,1000.60
2022-12-24T06:23:41.525Z,1000.59
2022-12-24T06:25:45.452Z,1000.63
2022-12-24T06:26:45.436Z,1000.65
2022-12-24T06:28:49.392Z,1000.68
2022-12-24T06:29:49.380Z,1000.69
2022-12-24T06:31:53.369Z,1000.66
2022-12-24T06:32:53.286Z,1000.65
2022-12-24T06:34:57.219Z,1000.62
2022-12-24T06:35:57.216Z,1000.62
2022-12-24T06:38:01.162Z,1000.57
2022-12-24T06:39:01.137Z,1000.59
2022-12-24T06:41:05.078Z,1000.59
2022-12-24T06:42:05.056Z,1000.68
2022-12-24T06:44:09.052Z,1000.60
2022-12-24T06:45:09.009Z,1000.60
2022-12-24T06:47:12.922Z,1000.56
2022-12-24T06:48:12.913Z,1000.55
2022-12-24T06:50:16.921Z,1000.59
2022-12-24T06:51:16.834Z,1000.54
2022-12-24T06:53:20.778Z,1000.59
2022-12-24T06:54:20.754Z,1000.65
2022-12-24T06:56:24.827Z,1000.66
2022-12-24T06:57:24.674Z,1000.71
2022-12-24T06:59:28.629Z,1000.71
2022-12-24T07:00:28.607Z,1000.76
2022-12-24T07:02:21.552Z,1000.81
2022-12-24T07:03:21.481Z,1000.81
2022-12-24T07:05:25.403Z,1000.84
2022-12-24T07:06:25.394Z,1000.88
2022-12-24T07:08:29.341Z,1000.90
2022-12-24T07:09:29.319Z,1000.96
2022-12-24T07:11:33.255Z,1000.93
2022-12-24T07:12:33.244Z,1000.97
2022-12-24T07:14:37.187Z,1000.99
2022-12-24T07:15:37.168Z,1000.99
2022-12-24T07:17:41.142Z,1000.99
2022-12-24T07:18:41.091Z,1000.95
2022-12-24T07:20:45.032Z,1001.05
2022-12-24T07:21:45.011Z,1001.10
2022-12-24T07:23:48.953Z,1001.15
2022-12-24T07:24:48.935Z,1001.11
2022-12-24T07:26:52.880Z,1001.09
2022-12-24T07:27:52.857Z,1001.13
2022-12-24T07:29:56.805Z,1001.21
2022-12-24T07:30:56.883Z,1001.26
2022-12-24T07:33:00.729Z,1001.28
2022-12-24T07:34:00.709Z,1001.31
2022-12-24T07:36:04.642Z,1001.33
2022-12-24T07:37:04.630Z,1001.36
2022-12-24T07:39:08.576Z,1001.38
2022-12-24T07:40:08.555Z,1001.40
2022-12-24T07:42:01.427Z,1001.42
2022-12-24T07:43:01.408Z,1001.41
2022-12-24T07:45:05.352Z,1001.38
2022-12-24T07:46:05.334Z,1001.44
2022-12-24T07:48:09.288Z,1001.47
2022-12-24T07:49:09.263Z,1001.45
2022-12-24T07:51:13.193Z,1001.46
2022-12-24T07:52:13.178Z,1001.51
2022-12-24T07:54:17.131Z,1001.52
2022-12-24T07:55:17.111Z,1001.52
2022-12-24T07:57:21.039Z,1001.59
2022-12-24T07:58:21.027Z,1001.61
2022-12-24T08:00:24.985Z,1001.67
2022-12-24T08:01:25.081Z,1001.68
2022-12-24T08:03:29.065Z,1001.66
2022-12-24T08:04:28.914Z,1001.74
2022-12-24T08:06:33.427Z,1001.79
2022-12-24T08:07:33.028Z,1001.82
2022-12-24T08:09:36.976Z,1001.82
2022-12-24T08:10:36.955Z,1001.81
2022-12-24T08:12:29.829Z,1001.86
2022-12-24T08:13:29.806Z,1001.90
2022-12-24T08:15:33.771Z,1001.97
2022-12-24T08:16:33.832Z,1001.96
2022-12-24T08:18:37.676Z,1001.92
2022-12-24T08:19:37.654Z,1001.89
2022-12-24T08:21:41.609Z,1001.84
2022-12-24T08:22:41.578Z,1001.90
2022-12-24T08:24:45.529Z,1001.86
2022-12-24T08:25:45.507Z,1001.84
2022-12-24T08:27:49.455Z,1001.83
2022-12-24T08:28:49.435Z,1001.82
2022-12-24T08:30:53.375Z,1001.80
2022-12-24T08:31:53.436Z,1001.78
2022-12-24T08:33:57.317Z,1001.79
2022-12-24T08:34:57.277Z,1001.81
2022-12-24T08:37:01.216Z,1001.81
2022-12-24T08:38:01.207Z,1001.82
2022-12-24T08:40:05.153Z,1001.85
2022-12-24T08:41:05.125Z,1001.93
2022-12-24T08:43:09.067Z,1001.95
2022-12-24T08:44:09.049Z,1001.92
2022-12-24T08:46:13.059Z,1001.95
2022-12-24T08:47:12.970Z,1001.98
2022-12-24T08:49:16.919Z,1002.05
2022-12-24T08:50:16.899Z,1002.05
2022-12-24T08:52:09.782Z,1002.06
2022-12-24T08:53:09.770Z,1002.04
2022-12-24T08:55:13.717Z,1002.10
2022-12-24T08:56:13.690Z,1002.08
2022-12-24T08:58:17.638Z,1002.05
2022-12-24T08:59:17.620Z,1002.04
2022-12-24T09:01:21.646Z,1002.10
2022-12-24T09:02:21.896Z,1002.10
2022-12-24T09:04:25.484Z,1002.11
2022-12-24T09:05:25.472Z,1002.09
2022-12-24T09:07:29.406Z,1002.12
2022-12-24T09:08:29.381Z,1002.12
2022-12-24T09:10:33.328Z,1002.15
2022-12-24T09:11:33.311Z,1002.14
2022-12-24T09:13:37.272Z,1002.26
2022-12-24T09:14:37.228Z,1002.21
2022-12-24T09:16:41.265Z,1002.23
2022-12-24T09:17:41.189Z,1002.25
2022-12-24T09:19:45.105Z,1002.27
2022-12-24T09:20:46.953Z,1002.32
2022-12-24T09:22:37.961Z,1002.28
2022-12-24T09:23:37.939Z,1002.27
2022-12-24T09:25:41.892Z,1002.33
2022-12-24T09:26:41.868Z,1002.36
2022-12-24T09:28:45.815Z,1002.46
2022-12-24T09:29:45.800Z,1002.48
2022-12-24T09:31:49.761Z,1002.63
2022-12-24T09:32:49.728Z,1002.65
2022-12-24T09:33:49.730Z,1002.66
2022-12-24T09:34:49.730Z,1002.66
2022-12-24T09:35:49.705Z,1002.72
2022-12-24T09:36:49.689Z,1002.77
2022-12-24T09:37:49.677Z,1002.82
2022-12-24T09:38:49.678Z,1002.85
2022-12-24T09:39:49.657Z,1002.96
2022-12-24T09:40:49.659Z,1002.90
2022-12-24T09:41:49.637Z,1002.96
2022-12-24T09:42:49.642Z,1003.01
2022-12-24T09:43:49.621Z,1003.06
2022-12-24T09:44:49.609Z,1003.06
2022-12-24T09:45:49.664Z,1003.17
2022-12-24T09:46:49.592Z,1003.17
2022-12-24T09:47:49.584Z,1003.21
2022-12-24T09:48:49.585Z,1003.22
2022-12-24T09:49:49.566Z,1003.18
2022-12-24T09:50:49.553Z,1003.18
2022-12-24T09:51:49.545Z,1003.18
2022-12-24T09:52:49.564Z,1003.18
2022-12-24T09:53:49.524Z,1003.15
2022-12-24T09:54:50.133Z,1003.21
2022-12-24T09:55:49.504Z,1003.28
2022-12-24T09:56:49.496Z,1003.29
2022-12-24T09:57:49.486Z,1003.36
2022-12-24T09:58:49.475Z,1003.38
2022-12-24T09:59:49.463Z,1003.41
2022-12-24T10:00:50.338Z,1003.41
2022-12-24T10:01:49.665Z,1003.40
2022-12-24T10:02:49.547Z,1003.40
2022-12-24T10:03:49.471Z,1003.39
2022-12-24T10:04:49.422Z,1003.36
2022-12-24T10:05:49.408Z,1003.43
2022-12-24T10:06:49.406Z,1003.45
2022-12-24T10:07:49.389Z,1003.46
2022-12-24T10:08:49.382Z,1003.51
2022-12-24T10:09:49.362Z,1003.48
2022-12-24T10:10:49.414Z,1003.50
2022-12-24T10:11:49.361Z,1003.55
2022-12-24T10:12:50.062Z,1003.57
2022-12-24T10:13:49.335Z,1003.63
2022-12-24T10:14:49.448Z,1003.64
2022-12-24T10:15:49.315Z,1003.61
2022-12-24T10:16:49.376Z,1003.60
2022-12-24T10:17:49.294Z,1003.58
2022-12-24T10:18:49.786Z,1003.56
2022-12-24T10:19:49.276Z,1003.60
2022-12-24T10:20:49.269Z,1003.62
2022-12-24T10:21:49.256Z,1003.66
2022-12-24T10:22:49.248Z,1003.67
2022-12-24T10:23:49.235Z,1003.69
2022-12-24T10:24:50.781Z,1003.71
2022-12-24T10:25:49.227Z,1003.71
2022-12-24T10:26:49.213Z,1003.72
2022-12-24T10:27:49.200Z,1003.73
2022-12-24T10:28:49.202Z,1003.73
2022-12-24T10:29:49.185Z,1003.73
2022-12-24T10:30:49.289Z,1003.66
2022-12-24T10:31:49.163Z,1003.66
2022-12-24T10:32:49.155Z,1003.66
2022-12-24T10:33:49.142Z,1003.69
2022-12-24T10:34:49.143Z,1003.69
2022-12-24T10:35:49.130Z,1003.70
2022-12-24T10:36:49.124Z,1003.68
2022-12-24T10:37:49.110Z,1003.71
2022-12-24T10:38:49.104Z,1003.75
2022-12-24T10:39:49.095Z,1003.78
2022-12-24T10:40:49.096Z,1003.78
2022-12-24T10:41:49.139Z,1003.79
2022-12-24T10:42:51.612Z,1003.80
2022-12-24T10:43:49.059Z,1003.85
2022-12-24T10:44:49.048Z,1003.84
2022-12-24T10:45:49.114Z,1003.92
2022-12-24T10:46:49.053Z,1003.88
2022-12-24T10:47:49.026Z,1003.89
2022-12-24T10:48:50.954Z,1003.92
2022-12-24T10:49:49.033Z,1003.91
2022-12-24T10:50:49.038Z,1003.91
2022-12-24T10:51:48.985Z,1003.91
2022-12-24T10:52:48.975Z,1003.89
2022-12-24T10:53:48.967Z,1003.92
2022-12-24T10:54:48.969Z,1003.88
2022-12-24T10:55:48.955Z,1003.85
2022-12-24T10:56:48.949Z,1003.87
2022-12-24T10:57:48.931Z,1003.86
2022-12-24T10:58:48.975Z,1003.86
2022-12-24T10:59:48.914Z,1003.83
2022-12-24T11:00:48.907Z,1003.83
2022-12-24T11:01:49.037Z,1003.73
2022-12-24T11:02:49.080Z,1003.81
2022-12-24T11:03:49.003Z,1003.82
2022-12-24T11:04:48.879Z,1003.84
2022-12-24T11:05:48.861Z,1003.84
2022-12-24T11:06:49.386Z,1003.84
2022-12-24T11:07:48.839Z,1003.90
2022-12-24T11:08:48.833Z,1003.86
2022-12-24T11:09:48.823Z,1003.89
2022-12-24T11:10:48.817Z,1003.88
2022-12-24T11:11:48.804Z,1003.91
2022-12-24T11:13:00.532Z,1003.90
2022-12-24T11:13:48.792Z,1003.87
2022-12-24T11:14:48.783Z,1003.90
2022-12-24T11:15:48.803Z,1003.92
2022-12-24T11:16:48.763Z,1003.89
2022-12-24T11:17:48.751Z,1003.92
2022-12-24T11:18:51.749Z,1003.89
2022-12-24T11:19:48.734Z,1003.94
2022-12-24T11:20:48.730Z,1003.90
2022-12-24T11:21:48.716Z,1003.92
2022-12-24T11:22:48.707Z,1003.92
2022-12-24T11:23:48.703Z,1003.97
2022-12-24T11:24:50.276Z,1003.92
2022-12-24T11:25:48.681Z,1003.96
2022-12-24T11:26:48.681Z,1003.96
2022-12-24T11:27:48.660Z,1003.96
2022-12-24T11:28:48.656Z,1003.95
2022-12-24T11:29:48.644Z,1003.93
2022-12-24T11:30:48.690Z,1003.93
2022-12-24T11:31:48.623Z,1003.96
2022-12-24T11:32:48.628Z,1003.88
2022-12-24T11:33:48.607Z,1003.89
2022-12-24T11:34:48.595Z,1003.90
2022-12-24T11:35:48.606Z,1003.91
2022-12-24T11:36:48.605Z,1003.87
2022-12-24T11:37:48.569Z,1003.86
2022-12-24T11:38:48.563Z,1003.84
2022-12-24T11:39:48.573Z,1003.94
2022-12-24T11:40:48.556Z,1003.94
2022-12-24T11:41:48.534Z,1003.94
2022-12-24T11:42:48.527Z,1003.89
2022-12-24T11:43:48.517Z,1003.85
2022-12-24T11:44:48.521Z,1003.86
2022-12-24T11:45:48.499Z,1003.84
2022-12-24T11:46:48.532Z,1003.84
2022-12-24T11:47:48.478Z,1003.81
2022-12-24T11:48:48.475Z,1003.82
2022-12-24T11:49:48.466Z,1003.84
2022-12-24T11:50:48.459Z,1003.87
2022-12-24T11:51:48.444Z,1003.83
2022-12-24T11:52:48.435Z,1003.78
2022-12-24T11:53:48.434Z,1003.78
2022-12-24T11:54:48.419Z,1003.76
2022-12-24T11:55:48.414Z,1003.82
2022-12-24T11:56:48.400Z,1003.82
2022-12-24T11:57:48.393Z,1003.85
2022-12-24T11:58:48.391Z,1003.77
2022-12-24T11:59:48.375Z,1003.74
2022-12-24T12:00:48.365Z,1003.73
2022-12-24T12:01:48.417Z,1003.78
2022-12-24T12:02:48.458Z,1003.74
2022-12-24T12:03:48.371Z,1003.71
2022-12-24T12:04:48.331Z,1003.69
2022-12-24T12:05:48.322Z,1003.66
2022-12-24T12:06:48.354Z,1003.66
2022-12-24T12:07:48.301Z,1003.68
2022-12-24T12:08:48.296Z,1003.66
2022-12-24T12:09:48.287Z,1003.66
2022-12-24T12:10:48.283Z,1003.64
2022-12-24T12:11:48.275Z,1003.62
2022-12-24T12:12:48.263Z,1003.64
2022-12-24T12:13:48.266Z,1003.65
2022-12-24T12:14:48.243Z,1003.69
2022-12-24T12:15:48.254Z,1003.67
2022-12-24T12:16:48.225Z,1003.64
2022-12-24T12:17:48.217Z,1003.64
2022-12-24T12:18:48.208Z,1003.72
2022-12-24T12:19:48.194Z,1003.68
2022-12-24T12:20:48.191Z,1003.67
2022-12-24T12:21:48.190Z,1003.65
2022-12-24T12:22:48.177Z,1003.66
2022-12-24T12:23:48.169Z,1003.67
2022-12-24T12:24:48.150Z,1003.69
2022-12-24T12:25:48.147Z,1003.72
2022-12-24T12:26:48.134Z,1003.75
2022-12-24T12:27:48.127Z,1003.77
2022-12-24T12:28:48.117Z,1003.72
2022-12-24T12:29:48.125Z,1003.70
2022-12-24T12:30:48.107Z,1003.70
2022-12-24T12:31:48.187Z,1003.76
2022-12-24T12:32:48.143Z,1003.77
2022-12-24T12:33:48.075Z,1003.88
2022-12-24T12:34:48.075Z,1003.84
2022-12-24T12:35:48.058Z,1003.79
2022-12-24T12:36:48.048Z,1003.82
2022-12-24T12:37:48.039Z,1003.85
2022-12-24T12:38:48.043Z,1003.86
2022-12-24T12:39:48.028Z,1003.89
2022-12-24T12:40:48.025Z,1003.91
2022-12-24T12:41:48.007Z,1003.90
2022-12-24T12:42:48.020Z,1003.95
2022-12-24T12:43:47.984Z,1003.98
2022-12-24T12:44:47.977Z,1003.92
2022-12-24T12:45:47.968Z,1003.94
2022-12-24T12:46:48.005Z,1003.96
2022-12-24T12:47:47.947Z,1003.98
2022-12-24T12:48:47.948Z,1003.98
2022-12-24T12:49:47.933Z,1003.97
2022-12-24T12:50:47.925Z,1003.97
2022-12-24T12:51:47.917Z,1003.98
2022-12-24T12:52:47.905Z,1004.00
2022-12-24T12:53:47.897Z,1004.01
2022-12-24T12:54:47.899Z,1004.04
2022-12-24T12:55:47.879Z,1003.99
2022-12-24T12:56:47.871Z,1004.00
2022-12-24T12:57:47.873Z,1003.96
2022-12-24T12:58:47.856Z,1003.94
2022-12-24T12:59:47.849Z,1003.95
2022-12-24T13:00:47.892Z,1003.94
2022-12-24T13:01:47.996Z,1003.95
2022-12-24T13:02:47.922Z,1003.91
2022-12-24T13:03:47.808Z,1003.93
2022-12-24T13:04:47.796Z,1003.97
2022-12-24T13:05:47.793Z,1003.98
2022-12-24T13:06:47.783Z,1004.01
2022-12-24T13:07:47.774Z,1004.00
2022-12-24T13:08:47.769Z,1004.00
2022-12-24T13:09:47.755Z,1003.97
2022-12-24T13:10:47.753Z,1003.98
2022-12-24T13:11:47.737Z,1003.97
2022-12-24T13:12:47.740Z,1003.99
2022-12-24T13:13:47.743Z,1004.06
2022-12-24T13:14:47.716Z,1004.10
2022-12-24T13:15:47.728Z,1004.08
2022-12-24T13:16:47.728Z,1004.10
2022-12-24T13:17:47.689Z,1004.10
2022-12-24T13:18:47.684Z,1004.13
2022-12-24T13:19:47.675Z,1004.14
2022-12-24T13:20:47.669Z,1004.12